Dai28sankoumaru — JL6256 — position and weather

sailwx.info

Track history (hours):
 
Tides and Currents Weather Stations Pressure Air Temp Water Temp Dewpoint Dewpoint Depression Visibility Wind Speed Wind Dir Waves Ship Positions

Dai28sankoumaru

Last reported at 2018-Jan-23 11:28 UTC. Time now 2018-Jan-23 11:59 UTC.
Position N 34°42' E 135°26'.

Length 72 m.

Type: Cargo ship. MMSI: 431300156.

Date/timePositionNaut miles runAvg speedWind from/ knotsBaromVisibWave heightAir tempDewpointWater temp
2018-Jan-23 11:28N 34°42' E 135°26'0 0.0
2018-Jan-23 10:58N 34°42' E 135°26'0 0.0
2018-Jan-23 10:28N 34°42' E 135°26'0 0.0
2018-Jan-23 09:58N 34°42' E 135°26'0 0.0
2018-Jan-23 09:28N 34°42' E 135°26'0 0.0
2018-Jan-23 08:58N 34°42' E 135°26'0 0.0
2018-Jan-23 08:28N 34°42' E 135°26'0 0.0
2018-Jan-23 07:58N 34°42' E 135°26'0 0.0
2018-Jan-23 07:28N 34°42' E 135°26'0 0.0
2018-Jan-23 06:58N 34°42' E 135°26'0 0.0
2018-Jan-23 06:28N 34°42' E 135°26'0 0.0
2018-Jan-23 05:58N 34°42' E 135°26'0 0.0
2018-Jan-23 05:28N 34°42' E 135°26'0 0.0
2018-Jan-23 04:58N 34°42' E 135°26'0 0.0
2018-Jan-23 04:28N 34°42' E 135°26'0 0.0
2018-Jan-23 03:58N 34°42' E 135°26'0 0.0
2018-Jan-23 03:28N 34°42' E 135°26'0 0.0
2018-Jan-23 02:58N 34°42' E 135°26'0 0.0
2018-Jan-23 02:28N 34°42' E 135°26'0 0.0
2018-Jan-23 01:58N 34°42' E 135°26'0 0.0
2018-Jan-23 01:28N 34°42' E 135°26'0 0.0
2018-Jan-23 00:58N 34°42' E 135°26'0 0.0
2018-Jan-23 00:28N 34°42' E 135°26'1 3.3
2018-Jan-23 00:00N 34°41' E 135°24'4 7.0
2018-Jan-22 23:25N 34°42' E 135°19'0 0.0
2018-Jan-22 22:55N 34°42' E 135°19'0 0.0
2018-Jan-22 22:25N 34°42' E 135°19'0 0.0
2018-Jan-22 21:55N 34°42' E 135°19'0 0.0
2018-Jan-22 21:25N 34°42' E 135°19'0 0.0
2018-Jan-22 20:58N 34°42' E 135°19'0 0.0
2018-Jan-22 20:25N 34°42' E 135°19'0 0.0
2018-Jan-22 19:58N 34°42' E 135°19'0 0.0
2018-Jan-22 19:28N 34°42' E 135°19'0 0.0
2018-Jan-22 18:55N 34°42' E 135°19'0 0.0
2018-Jan-22 18:28N 34°42' E 135°19'0 0.0
2018-Jan-22 17:58N 34°42' E 135°19'0 0.0
2018-Jan-22 17:28N 34°42' E 135°19'0 0.0
2018-Jan-22 16:55N 34°42' E 135°19'0 0.0
2018-Jan-22 16:25N 34°41' E 135°19'0 0.0
2018-Jan-22 15:55N 34°42' E 135°19'0 0.0
2018-Jan-22 15:22N 34°42' E 135°19'0 0.0
2018-Jan-22 14:58N 34°42' E 135°19'0 0.0
2018-Jan-22 14:28N 34°42' E 135°19'0 0.0
2018-Jan-22 13:58N 34°42' E 135°19'0 0.0
2018-Jan-22 13:28N 34°42' E 135°19'0 0.0
2018-Jan-22 12:58N 34°42' E 135°19'0 0.0
2018-Jan-22 12:25N 34°42' E 135°19'0 0.0
2018-Jan-22 11:58N 34°42' E 135°19'0 0.1
2018-Jan-22 11:28N 34°42' E 135°19'0 0.1
2018-Jan-22 10:58N 34°42' E 135°19'0 0.1
2018-Jan-22 10:25N 34°42' E 135°19'0 0.0
2018-Jan-22 09:58N 34°42' E 135°19'0 0.1
2018-Jan-22 09:28N 34°41' E 135°19'2 5.2
2018-Jan-22 09:00N 34°39' E 135°18'510.7
2018-Jan-22 08:30N 34°34' E 135°16'510.6
2018-Jan-22 08:00N 34°30' E 135°13'510.3
2018-Jan-22 07:29N 34°25' E 135°09'5 9.9
2018-Jan-22 07:00N 34°21' E 135°06'5 9.2
2018-Jan-22 06:30N 34°17' E 135°04'5 9.5
2018-Jan-22 06:00N 34°12' E 135°02'510.1
2018-Jan-22 05:29N 34°07' E 135°02'510.2
2018-Jan-22 05:00N 34°02' E 135°02'  
2018-Jan-18 00:22N 34°46' E 139°14'  
Track history (hours):
 
Tides and Currents Weather Stations Pressure Air Temp Water Temp Dewpoint Dewpoint Depression Visibility Wind Speed Wind Dir Waves Ship Positions

Dai28sankoumaru

Last reported at 2018-Jan-23 11:28 UTC. Time now 2018-Jan-23 11:59 UTC.
Position N 34°42' E 135°26'.

Length 72 m.

Type: Cargo ship. MMSI: 431300156.

Date/timePositionNaut miles runAvg speedWind from/ knotsBaromVisibWave heightAir tempDewpointWater temp
2018-Jan-23 11:28N 34°42' E 135°26'0 0.0
2018-Jan-23 10:58N 34°42' E 135°26'0 0.0
2018-Jan-23 10:28N 34°42' E 135°26'0 0.0
2018-Jan-23 09:58N 34°42' E 135°26'0 0.0
2018-Jan-23 09:28N 34°42' E 135°26'0 0.0
2018-Jan-23 08:58N 34°42' E 135°26'0 0.0
2018-Jan-23 08:28N 34°42' E 135°26'0 0.0
2018-Jan-23 07:58N 34°42' E 135°26'0 0.0
2018-Jan-23 07:28N 34°42' E 135°26'0 0.0
2018-Jan-23 06:58N 34°42' E 135°26'0 0.0
2018-Jan-23 06:28N 34°42' E 135°26'0 0.0
2018-Jan-23 05:58N 34°42' E 135°26'0 0.0
2018-Jan-23 05:28N 34°42' E 135°26'0 0.0
2018-Jan-23 04:58N 34°42' E 135°26'0 0.0
2018-Jan-23 04:28N 34°42' E 135°26'0 0.0
2018-Jan-23 03:58N 34°42' E 135°26'0 0.0
2018-Jan-23 03:28N 34°42' E 135°26'0 0.0
2018-Jan-23 02:58N 34°42' E 135°26'0 0.0
2018-Jan-23 02:28N 34°42' E 135°26'0 0.0
2018-Jan-23 01:58N 34°42' E 135°26'0 0.0
2018-Jan-23 01:28N 34°42' E 135°26'0 0.0
2018-Jan-23 00:58N 34°42' E 135°26'0 0.0
2018-Jan-23 00:28N 34°42' E 135°26'1 3.3
2018-Jan-23 00:00N 34°41' E 135°24'4 7.0
2018-Jan-22 23:25N 34°42' E 135°19'0 0.0
2018-Jan-22 22:55N 34°42' E 135°19'0 0.0
2018-Jan-22 22:25N 34°42' E 135°19'0 0.0
2018-Jan-22 21:55N 34°42' E 135°19'0 0.0
2018-Jan-22 21:25N 34°42' E 135°19'0 0.0
2018-Jan-22 20:58N 34°42' E 135°19'0 0.0
2018-Jan-22 20:25N 34°42' E 135°19'0 0.0
2018-Jan-22 19:58N 34°42' E 135°19'0 0.0
2018-Jan-22 19:28N 34°42' E 135°19'0 0.0
2018-Jan-22 18:55N 34°42' E 135°19'0 0.0
2018-Jan-22 18:28N 34°42' E 135°19'0 0.0
2018-Jan-22 17:58N 34°42' E 135°19'0 0.0
2018-Jan-22 17:28N 34°42' E 135°19'0 0.0
2018-Jan-22 16:55N 34°42' E 135°19'0 0.0
2018-Jan-22 16:25N 34°41' E 135°19'0 0.0
2018-Jan-22 15:55N 34°42' E 135°19'0 0.0
2018-Jan-22 15:22N 34°42' E 135°19'0 0.0
2018-Jan-22 14:58N 34°42' E 135°19'0 0.0
2018-Jan-22 14:28N 34°42' E 135°19'0 0.0
2018-Jan-22 13:58N 34°42' E 135°19'0 0.0
2018-Jan-22 13:28N 34°42' E 135°19'0 0.0
2018-Jan-22 12:58N 34°42' E 135°19'0 0.0
2018-Jan-22 12:25N 34°42' E 135°19'0 0.0
2018-Jan-22 11:58N 34°42' E 135°19'0 0.1
2018-Jan-22 11:28N 34°42' E 135°19'0 0.1
2018-Jan-22 10:58N 34°42' E 135°19'0 0.1
2018-Jan-22 10:25N 34°42' E 135°19'0 0.0
2018-Jan-22 09:58N 34°42' E 135°19'0 0.1
2018-Jan-22 09:28N 34°41' E 135°19'2 5.2
2018-Jan-22 09:00N 34°39' E 135°18'510.7
2018-Jan-22 08:30N 34°34' E 135°16'510.6
2018-Jan-22 08:00N 34°30' E 135°13'510.3
2018-Jan-22 07:29N 34°25' E 135°09'5 9.9
2018-Jan-22 07:00N 34°21' E 135°06'5 9.2
2018-Jan-22 06:30N 34°17' E 135°04'5 9.5
2018-Jan-22 06:00N 34°12' E 135°02'510.1
2018-Jan-22 05:29N 34°07' E 135°02'510.2
2018-Jan-22 05:00N 34°02' E 135°02'  
2018-Jan-18 00:22N 34°46' E 139°14'  

Dump ship's entire track history